sensor_id;sensor_type;location;lat;lon;timestamp;P1;durP1;ratioP1;P2;durP2;ratioP2
13327;SDS011;6733;51.044;3.746;2023-04-15T00:00:19;4.83;;;4.33;;
13327;SDS011;6733;51.044;3.746;2023-04-15T00:02:45;6.23;;;4.17;;
13327;SDS011;6733;51.044;3.746;2023-04-15T00:05:11;7.97;;;4.57;;
13327;SDS011;6733;51.044;3.746;2023-04-15T00:07:38;5.33;;;3.53;;
13327;SDS011;6733;51.044;3.746;2023-04-15T00:10:05;4.57;;;3.83;;
13327;SDS011;6733;51.044;3.746;2023-04-15T00:12:31;5.10;;;4.10;;
13327;SDS011;6733;51.044;3.746;2023-04-15T00:14:58;6.03;;;3.63;;
13327;SDS011;6733;51.044;3.746;2023-04-15T00:17:24;6.07;;;3.83;;
13327;SDS011;6733;51.044;3.746;2023-04-15T00:19:50;5.37;;;3.90;;
13327;SDS011;6733;51.044;3.746;2023-04-15T00:22:16;7.17;;;3.77;;
13327;SDS011;6733;51.044;3.746;2023-04-15T00:24:42;5.17;;;3.93;;
13327;SDS011;6733;51.044;3.746;2023-04-15T00:27:09;3.70;;;3.40;;
13327;SDS011;6733;51.044;3.746;2023-04-15T00:29:35;3.53;;;3.23;;
13327;SDS011;6733;51.044;3.746;2023-04-15T00:32:02;3.83;;;3.07;;
13327;SDS011;6733;51.044;3.746;2023-04-15T00:34:28;3.50;;;3.10;;
13327;SDS011;6733;51.044;3.746;2023-04-15T00:36:54;4.33;;;2.97;;
13327;SDS011;6733;51.044;3.746;2023-04-15T00:39:21;4.57;;;3.20;;
13327;SDS011;6733;51.044;3.746;2023-04-15T00:41:47;5.23;;;3.10;;
13327;SDS011;6733;51.044;3.746;2023-04-15T00:44:14;3.67;;;2.83;;
13327;SDS011;6733;51.044;3.746;2023-04-15T00:46:40;3.60;;;3.17;;
13327;SDS011;6733;51.044;3.746;2023-04-15T00:49:09;3.63;;;3.33;;
13327;SDS011;6733;51.044;3.746;2023-04-15T00:51:36;5.40;;;3.63;;
13327;SDS011;6733;51.044;3.746;2023-04-15T00:54:03;3.97;;;3.57;;
13327;SDS011;6733;51.044;3.746;2023-04-15T00:56:29;4.57;;;4.10;;
13327;SDS011;6733;51.044;3.746;2023-04-15T00:58:59;4.90;;;4.30;;
13327;SDS011;6733;51.044;3.746;2023-04-15T01:01:26;4.43;;;4.00;;
13327;SDS011;6733;51.044;3.746;2023-04-15T01:03:54;6.73;;;4.73;;
13327;SDS011;6733;51.044;3.746;2023-04-15T01:06:22;6.40;;;5.40;;
13327;SDS011;6733;51.044;3.746;2023-04-15T01:08:49;6.77;;;6.07;;
13327;SDS011;6733;51.044;3.746;2023-04-15T01:11:15;6.27;;;5.67;;
13327;SDS011;6733;51.044;3.746;2023-04-15T01:13:42;7.03;;;5.67;;
13327;SDS011;6733;51.044;3.746;2023-04-15T01:16:08;6.73;;;5.63;;
13327;SDS011;6733;51.044;3.746;2023-04-15T01:18:35;7.80;;;5.77;;
13327;SDS011;6733;51.044;3.746;2023-04-15T01:21:03;6.27;;;5.53;;
13327;SDS011;6733;51.044;3.746;2023-04-15T01:23:30;7.50;;;6.30;;
13327;SDS011;6733;51.044;3.746;2023-04-15T01:25:57;6.50;;;5.87;;
13327;SDS011;6733;51.044;3.746;2023-04-15T01:28:24;8.27;;;6.50;;
13327;SDS011;6733;51.044;3.746;2023-04-15T01:31:04;7.13;;;5.90;;
13327;SDS011;6733;51.044;3.746;2023-04-15T01:33:33;6.57;;;5.97;;
13327;SDS011;6733;51.044;3.746;2023-04-15T01:35:59;6.67;;;5.80;;
13327;SDS011;6733;51.044;3.746;2023-04-15T01:38:26;7.00;;;5.90;;
13327;SDS011;6733;51.044;3.746;2023-04-15T01:40:52;5.57;;;5.00;;
13327;SDS011;6733;51.044;3.746;2023-04-15T01:43:19;6.30;;;5.50;;
13327;SDS011;6733;51.044;3.746;2023-04-15T01:45:45;5.00;;;4.50;;
13327;SDS011;6733;51.044;3.746;2023-04-15T01:48:11;4.60;;;4.20;;
13327;SDS011;6733;51.044;3.746;2023-04-15T01:50:37;3.90;;;3.47;;
13327;SDS011;6733;51.044;3.746;2023-04-15T01:53:04;6.20;;;4.03;;
13327;SDS011;6733;51.044;3.746;2023-04-15T01:55:30;6.97;;;3.43;;
13327;SDS011;6733;51.044;3.746;2023-04-15T01:57:57;4.23;;;3.40;;
13327;SDS011;6733;51.044;3.746;2023-04-15T02:00:23;5.40;;;3.20;;
13327;SDS011;6733;51.044;3.746;2023-04-15T02:02:49;5.00;;;3.80;;
13327;SDS011;6733;51.044;3.746;2023-04-15T02:05:15;5.53;;;3.97;;
13327;SDS011;6733;51.044;3.746;2023-04-15T02:07:42;4.40;;;4.00;;
13327;SDS011;6733;51.044;3.746;2023-04-15T02:10:08;5.23;;;4.13;;
13327;SDS011;6733;51.044;3.746;2023-04-15T02:12:35;5.20;;;3.93;;
13327;SDS011;6733;51.044;3.746;2023-04-15T02:15:01;4.30;;;3.20;;
13327;SDS011;6733;51.044;3.746;2023-04-15T02:17:27;5.50;;;3.17;;
13327;SDS011;6733;51.044;3.746;2023-04-15T02:19:54;3.37;;;3.03;;
13327;SDS011;6733;51.044;3.746;2023-04-15T02:22:21;4.37;;;3.37;;
13327;SDS011;6733;51.044;3.746;2023-04-15T02:24:47;3.60;;;3.20;;
13327;SDS011;6733;51.044;3.746;2023-04-15T02:27:17;6.97;;;4.03;;
13327;SDS011;6733;51.044;3.746;2023-04-15T02:29:43;6.30;;;4.50;;
13327;SDS011;6733;51.044;3.746;2023-04-15T02:32:10;6.10;;;5.20;;
13327;SDS011;6733;51.044;3.746;2023-04-15T02:34:40;6.50;;;4.77;;
13327;SDS011;6733;51.044;3.746;2023-04-15T02:37:07;7.13;;;5.17;;
13327;SDS011;6733;51.044;3.746;2023-04-15T02:39:59;7.03;;;5.33;;
13327;SDS011;6733;51.044;3.746;2023-04-15T02:42:50;6.03;;;4.63;;
13327;SDS011;6733;51.044;3.746;2023-04-15T02:45:41;5.23;;;4.60;;
13327;SDS011;6733;51.044;3.746;2023-04-15T02:48:32;5.13;;;4.63;;
13327;SDS011;6733;51.044;3.746;2023-04-15T02:51:23;5.87;;;4.33;;
13327;SDS011;6733;51.044;3.746;2023-04-15T02:53:50;4.87;;;4.47;;
13327;SDS011;6733;51.044;3.746;2023-04-15T02:56:16;5.30;;;4.80;;
13327;SDS011;6733;51.044;3.746;2023-04-15T02:58:43;5.27;;;4.77;;
13327;SDS011;6733;51.044;3.746;2023-04-15T03:01:15;5.53;;;5.03;;
13327;SDS011;6733;51.044;3.746;2023-04-15T03:03:44;6.37;;;5.77;;
13327;SDS011;6733;51.044;3.746;2023-04-15T03:06:10;6.50;;;5.73;;
13327;SDS011;6733;51.044;3.746;2023-04-15T03:08:39;6.47;;;5.87;;
13327;SDS011;6733;51.044;3.746;2023-04-15T03:11:08;7.03;;;6.43;;
13327;SDS011;6733;51.044;3.746;2023-04-15T03:13:34;7.53;;;6.73;;
13327;SDS011;6733;51.044;3.746;2023-04-15T03:16:00;7.93;;;7.03;;
13327;SDS011;6733;51.044;3.746;2023-04-15T03:18:27;8.43;;;7.43;;
13327;SDS011;6733;51.044;3.746;2023-04-15T03:20:53;8.37;;;6.80;;
13327;SDS011;6733;51.044;3.746;2023-04-15T03:23:19;8.03;;;7.33;;
13327;SDS011;6733;51.044;3.746;2023-04-15T03:25:46;8.47;;;7.77;;
13327;SDS011;6733;51.044;3.746;2023-04-15T03:28:12;9.47;;;8.40;;
13327;SDS011;6733;51.044;3.746;2023-04-15T03:30:38;9.67;;;8.77;;
13327;SDS011;6733;51.044;3.746;2023-04-15T03:33:04;9.70;;;8.80;;
13327;SDS011;6733;51.044;3.746;2023-04-15T03:35:30;9.47;;;8.50;;
13327;SDS011;6733;51.044;3.746;2023-04-15T03:37:56;10.00;;;8.93;;
13327;SDS011;6733;51.044;3.746;2023-04-15T03:40:23;11.13;;;10.03;;
13327;SDS011;6733;51.044;3.746;2023-04-15T03:42:49;11.47;;;10.37;;
13327;SDS011;6733;51.044;3.746;2023-04-15T03:45:15;10.83;;;9.73;;
13327;SDS011;6733;51.044;3.746;2023-04-15T03:47:41;12.87;;;10.67;;
13327;SDS011;6733;51.044;3.746;2023-04-15T03:50:07;11.17;;;10.03;;
13327;SDS011;6733;51.044;3.746;2023-04-15T03:52:34;11.73;;;10.50;;
13327;SDS011;6733;51.044;3.746;2023-04-15T03:55:00;12.03;;;10.80;;
13327;SDS011;6733;51.044;3.746;2023-04-15T03:57:26;12.77;;;11.53;;
13327;SDS011;6733;51.044;3.746;2023-04-15T03:59:52;13.97;;;12.03;;
13327;SDS011;6733;51.044;3.746;2023-04-15T04:02:19;13.13;;;11.77;;
13327;SDS011;6733;51.044;3.746;2023-04-15T04:04:45;12.37;;;11.13;;
13327;SDS011;6733;51.044;3.746;2023-04-15T04:07:15;12.37;;;11.07;;
13327;SDS011;6733;51.044;3.746;2023-04-15T04:09:41;12.33;;;10.93;;
13327;SDS011;6733;51.044;3.746;2023-04-15T04:12:07;11.83;;;10.43;;
13327;SDS011;6733;51.044;3.746;2023-04-15T04:14:34;12.20;;;10.53;;
13327;SDS011;6733;51.044;3.746;2023-04-15T04:17:00;11.93;;;10.77;;
13327;SDS011;6733;51.044;3.746;2023-04-15T04:19:26;12.20;;;11.07;;
13327;SDS011;6733;51.044;3.746;2023-04-15T04:21:52;12.20;;;10.60;;
13327;SDS011;6733;51.044;3.746;2023-04-15T04:24:18;11.53;;;10.43;;
13327;SDS011;6733;51.044;3.746;2023-04-15T04:26:44;12.20;;;10.93;;
13327;SDS011;6733;51.044;3.746;2023-04-15T04:29:11;13.70;;;11.90;;
13327;SDS011;6733;51.044;3.746;2023-04-15T04:31:37;13.23;;;11.23;;
13327;SDS011;6733;51.044;3.746;2023-04-15T04:34:03;11.67;;;10.47;;
13327;SDS011;6733;51.044;3.746;2023-04-15T04:36:29;11.00;;;10.00;;
13327;SDS011;6733;51.044;3.746;2023-04-15T04:38:55;11.63;;;10.40;;
13327;SDS011;6733;51.044;3.746;2023-04-15T04:41:22;14.53;;;11.10;;
13327;SDS011;6733;51.044;3.746;2023-04-15T04:43:48;12.60;;;10.57;;
13327;SDS011;6733;51.044;3.746;2023-04-15T04:46:14;13.00;;;11.60;;
13327;SDS011;6733;51.044;3.746;2023-04-15T04:48:40;12.17;;;10.97;;
13327;SDS011;6733;51.044;3.746;2023-04-15T04:51:06;11.83;;;10.03;;
13327;SDS011;6733;51.044;3.746;2023-04-15T04:53:32;12.27;;;10.63;;
13327;SDS011;6733;51.044;3.746;2023-04-15T04:55:59;13.37;;;11.57;;
13327;SDS011;6733;51.044;3.746;2023-04-15T04:58:25;11.70;;;10.60;;
13327;SDS011;6733;51.044;3.746;2023-04-15T05:00:51;11.33;;;10.13;;
13327;SDS011;6733;51.044;3.746;2023-04-15T05:03:18;11.77;;;10.57;;
13327;SDS011;6733;51.044;3.746;2023-04-15T05:05:44;14.37;;;10.47;;
13327;SDS011;6733;51.044;3.746;2023-04-15T05:08:10;12.57;;;9.87;;
13327;SDS011;6733;51.044;3.746;2023-04-15T05:10:36;11.87;;;10.50;;
13327;SDS011;6733;51.044;3.746;2023-04-15T05:13:02;10.63;;;9.53;;
13327;SDS011;6733;51.044;3.746;2023-04-15T05:15:28;12.20;;;10.37;;
13327;SDS011;6733;51.044;3.746;2023-04-15T05:17:54;10.57;;;9.57;;
13327;SDS011;6733;51.044;3.746;2023-04-15T05:20:21;13.10;;;10.10;;
13327;SDS011;6733;51.044;3.746;2023-04-15T05:22:47;10.27;;;9.27;;
13327;SDS011;6733;51.044;3.746;2023-04-15T05:25:13;10.87;;;9.57;;
13327;SDS011;6733;51.044;3.746;2023-04-15T05:27:39;9.90;;;9.00;;
13327;SDS011;6733;51.044;3.746;2023-04-15T05:30:06;9.73;;;8.67;;
13327;SDS011;6733;51.044;3.746;2023-04-15T05:32:33;10.27;;;9.10;;
13327;SDS011;6733;51.044;3.746;2023-04-15T05:34:59;13.33;;;8.77;;
13327;SDS011;6733;51.044;3.746;2023-04-15T05:37:25;10.27;;;8.67;;
13327;SDS011;6733;51.044;3.746;2023-04-15T05:39:51;9.40;;;8.10;;
13327;SDS011;6733;51.044;3.746;2023-04-15T05:42:17;9.10;;;8.20;;
13327;SDS011;6733;51.044;3.746;2023-04-15T05:44:43;9.20;;;7.80;;
13327;SDS011;6733;51.044;3.746;2023-04-15T05:47:10;9.10;;;8.17;;
13327;SDS011;6733;51.044;3.746;2023-04-15T05:49:36;9.77;;;8.10;;
13327;SDS011;6733;51.044;3.746;2023-04-15T05:52:02;9.53;;;8.43;;
13327;SDS011;6733;51.044;3.746;2023-04-15T05:54:28;9.27;;;7.53;;
13327;SDS011;6733;51.044;3.746;2023-04-15T05:56:55;8.10;;;7.30;;
13327;SDS011;6733;51.044;3.746;2023-04-15T05:59:22;7.90;;;7.10;;
13327;SDS011;6733;51.044;3.746;2023-04-15T06:01:48;12.57;;;7.53;;
13327;SDS011;6733;51.044;3.746;2023-04-15T06:04:14;8.73;;;7.30;;
13327;SDS011;6733;51.044;3.746;2023-04-15T06:06:41;10.70;;;7.17;;
13327;SDS011;6733;51.044;3.746;2023-04-15T06:09:07;9.83;;;8.60;;
13327;SDS011;6733;51.044;3.746;2023-04-15T06:11:33;10.40;;;9.07;;
13327;SDS011;6733;51.044;3.746;2023-04-15T06:14:00;12.70;;;9.33;;
13327;SDS011;6733;51.044;3.746;2023-04-15T06:16:26;10.70;;;9.50;;
13327;SDS011;6733;51.044;3.746;2023-04-15T06:18:52;13.47;;;9.37;;
13327;SDS011;6733;51.044;3.746;2023-04-15T06:21:18;12.33;;;10.37;;
13327;SDS011;6733;51.044;3.746;2023-04-15T06:23:44;15.17;;;10.40;;
13327;SDS011;6733;51.044;3.746;2023-04-15T06:26:10;16.23;;;10.53;;
13327;SDS011;6733;51.044;3.746;2023-04-15T06:28:36;15.83;;;10.67;;
13327;SDS011;6733;51.044;3.746;2023-04-15T06:31:03;18.63;;;10.60;;
13327;SDS011;6733;51.044;3.746;2023-04-15T06:33:29;13.50;;;10.47;;
13327;SDS011;6733;51.044;3.746;2023-04-15T06:35:56;13.03;;;10.70;;
13327;SDS011;6733;51.044;3.746;2023-04-15T06:38:22;14.70;;;10.73;;
13327;SDS011;6733;51.044;3.746;2023-04-15T06:40:48;12.17;;;9.63;;
13327;SDS011;6733;51.044;3.746;2023-04-15T06:43:14;14.97;;;10.43;;
13327;SDS011;6733;51.044;3.746;2023-04-15T06:45:41;12.47;;;9.20;;
13327;SDS011;6733;51.044;3.746;2023-04-15T06:48:07;15.20;;;10.60;;
13327;SDS011;6733;51.044;3.746;2023-04-15T06:50:33;13.07;;;9.33;;
13327;SDS011;6733;51.044;3.746;2023-04-15T06:53:00;16.43;;;10.00;;
13327;SDS011;6733;51.044;3.746;2023-04-15T06:55:26;9.50;;;8.60;;
13327;SDS011;6733;51.044;3.746;2023-04-15T06:57:52;11.17;;;8.77;;
13327;SDS011;6733;51.044;3.746;2023-04-15T07:00:18;8.73;;;7.57;;
13327;SDS011;6733;51.044;3.746;2023-04-15T07:02:44;12.10;;;8.90;;
13327;SDS011;6733;51.044;3.746;2023-04-15T07:05:11;11.40;;;9.07;;
13327;SDS011;6733;51.044;3.746;2023-04-15T07:07:37;11.83;;;8.93;;
13327;SDS011;6733;51.044;3.746;2023-04-15T07:10:03;10.23;;;8.93;;
13327;SDS011;6733;51.044;3.746;2023-04-15T07:12:30;16.00;;;10.23;;
13327;SDS011;6733;51.044;3.746;2023-04-15T07:14:56;12.40;;;9.97;;
13327;SDS011;6733;51.044;3.746;2023-04-15T07:17:22;12.57;;;9.37;;
13327;SDS011;6733;51.044;3.746;2023-04-15T07:19:49;14.57;;;10.03;;
13327;SDS011;6733;51.044;3.746;2023-04-15T07:22:15;15.30;;;9.50;;
13327;SDS011;6733;51.044;3.746;2023-04-15T07:24:41;15.87;;;9.93;;
13327;SDS011;6733;51.044;3.746;2023-04-15T07:27:07;14.37;;;9.50;;
13327;SDS011;6733;51.044;3.746;2023-04-15T07:29:33;12.53;;;7.93;;
13327;SDS011;6733;51.044;3.746;2023-04-15T07:32:00;9.17;;;5.80;;
13327;SDS011;6733;51.044;3.746;2023-04-15T07:34:26;9.30;;;5.57;;
13327;SDS011;6733;51.044;3.746;2023-04-15T07:36:53;7.23;;;5.67;;
13327;SDS011;6733;51.044;3.746;2023-04-15T07:39:19;8.30;;;5.90;;
13327;SDS011;6733;51.044;3.746;2023-04-15T07:41:45;9.90;;;6.40;;
13327;SDS011;6733;51.044;3.746;2023-04-15T07:44:11;7.97;;;6.87;;
13327;SDS011;6733;51.044;3.746;2023-04-15T07:46:38;12.53;;;7.60;;
13327;SDS011;6733;51.044;3.746;2023-04-15T07:49:04;12.80;;;8.67;;
13327;SDS011;6733;51.044;3.746;2023-04-15T07:51:30;15.93;;;9.00;;
13327;SDS011;6733;51.044;3.746;2023-04-15T07:53:56;11.27;;;9.47;;
13327;SDS011;6733;51.044;3.746;2023-04-15T07:56:23;12.43;;;9.40;;
13327;SDS011;6733;51.044;3.746;2023-04-15T07:58:49;13.73;;;10.33;;
13327;SDS011;6733;51.044;3.746;2023-04-15T08:01:16;14.03;;;10.27;;
13327;SDS011;6733;51.044;3.746;2023-04-15T08:03:42;16.13;;;10.87;;
13327;SDS011;6733;51.044;3.746;2023-04-15T08:06:08;15.93;;;11.00;;
13327;SDS011;6733;51.044;3.746;2023-04-15T08:08:34;13.40;;;11.27;;
13327;SDS011;6733;51.044;3.746;2023-04-15T08:11:01;16.33;;;11.37;;
13327;SDS011;6733;51.044;3.746;2023-04-15T08:13:27;14.33;;;11.27;;
13327;SDS011;6733;51.044;3.746;2023-04-15T08:18:39;12.70;;;11.20;;
13327;SDS011;6733;51.044;3.746;2023-04-15T08:21:05;12.27;;;10.93;;
13327;SDS011;6733;51.044;3.746;2023-04-15T08:23:31;15.43;;;11.67;;
13327;SDS011;6733;51.044;3.746;2023-04-15T08:25:58;14.67;;;11.57;;
13327;SDS011;6733;51.044;3.746;2023-04-15T08:28:24;13.27;;;11.60;;
13327;SDS011;6733;51.044;3.746;2023-04-15T08:30:51;12.53;;;11.23;;
13327;SDS011;6733;51.044;3.746;2023-04-15T08:33:18;13.33;;;11.90;;
13327;SDS011;6733;51.044;3.746;2023-04-15T08:35:44;12.87;;;10.33;;
13327;SDS011;6733;51.044;3.746;2023-04-15T08:38:10;13.80;;;11.30;;
13327;SDS011;6733;51.044;3.746;2023-04-15T08:40:40;12.47;;;10.73;;
13327;SDS011;6733;51.044;3.746;2023-04-15T08:43:12;11.67;;;10.50;;
13327;SDS011;6733;51.044;3.746;2023-04-15T08:45:45;13.07;;;11.07;;
13327;SDS011;6733;51.044;3.746;2023-04-15T08:48:14;11.77;;;10.57;;
13327;SDS011;6733;51.044;3.746;2023-04-15T08:50:41;12.67;;;9.63;;
13327;SDS011;6733;51.044;3.746;2023-04-15T08:53:08;12.33;;;10.23;;
13327;SDS011;6733;51.044;3.746;2023-04-15T08:55:42;12.27;;;9.97;;
13327;SDS011;6733;51.044;3.746;2023-04-15T08:58:10;14.07;;;11.37;;
13327;SDS011;6733;51.044;3.746;2023-04-15T09:00:38;12.10;;;10.57;;
13327;SDS011;6733;51.044;3.746;2023-04-15T09:03:05;13.03;;;10.70;;
13327;SDS011;6733;51.044;3.746;2023-04-15T09:05:32;11.50;;;8.53;;
13327;SDS011;6733;51.044;3.746;2023-04-15T09:07:59;11.40;;;10.23;;
13327;SDS011;6733;51.044;3.746;2023-04-15T09:10:26;10.97;;;9.47;;
13327;SDS011;6733;51.044;3.746;2023-04-15T09:12:52;14.60;;;10.07;;
13327;SDS011;6733;51.044;3.746;2023-04-15T09:15:19;11.33;;;9.90;;
13327;SDS011;6733;51.044;3.746;2023-04-15T09:17:45;15.70;;;10.50;;
13327;SDS011;6733;51.044;3.746;2023-04-15T09:20:13;13.17;;;10.33;;
13327;SDS011;6733;51.044;3.746;2023-04-15T09:22:41;13.23;;;10.30;;
13327;SDS011;6733;51.044;3.746;2023-04-15T09:30:18;13.30;;;9.93;;
13327;SDS011;6733;51.044;3.746;2023-04-15T09:32:54;12.07;;;10.87;;
13327;SDS011;6733;51.044;3.746;2023-04-15T09:35:22;12.57;;;10.90;;
13327;SDS011;6733;51.044;3.746;2023-04-15T09:37:50;15.10;;;10.73;;
13327;SDS011;6733;51.044;3.746;2023-04-15T09:43:01;12.93;;;10.80;;
13327;SDS011;6733;51.044;3.746;2023-04-15T09:45:28;13.80;;;11.33;;
13327;SDS011;6733;51.044;3.746;2023-04-15T09:47:55;12.37;;;10.67;;
13327;SDS011;6733;51.044;3.746;2023-04-15T09:50:39;13.20;;;11.17;;
13327;SDS011;6733;51.044;3.746;2023-04-15T09:53:10;12.10;;;10.80;;
13327;SDS011;6733;51.044;3.746;2023-04-15T09:55:42;11.93;;;10.73;;
13327;SDS011;6733;51.044;3.746;2023-04-15T09:58:16;14.23;;;10.47;;
13327;SDS011;6733;51.044;3.746;2023-04-15T10:00:47;12.87;;;11.53;;
13327;SDS011;6733;51.044;3.746;2023-04-15T10:03:18;16.67;;;13.47;;
13327;SDS011;6733;51.044;3.746;2023-04-15T10:05:49;18.37;;;15.13;;
13327;SDS011;6733;51.044;3.746;2023-04-15T10:08:21;16.07;;;13.93;;
13327;SDS011;6733;51.044;3.746;2023-04-15T10:10:52;25.47;;;16.57;;
13327;SDS011;6733;51.044;3.746;2023-04-15T10:13:19;25.33;;;18.00;;
13327;SDS011;6733;51.044;3.746;2023-04-15T10:15:49;27.03;;;18.70;;
13327;SDS011;6733;51.044;3.746;2023-04-15T10:18:20;29.07;;;19.90;;
13327;SDS011;6733;51.044;3.746;2023-04-15T10:20:51;25.77;;;18.70;;
13327;SDS011;6733;51.044;3.746;2023-04-15T10:23:19;26.20;;;17.17;;
13327;SDS011;6733;51.044;3.746;2023-04-15T10:25:46;20.97;;;14.67;;
13327;SDS011;6733;51.044;3.746;2023-04-15T10:28:14;19.07;;;13.63;;
13327;SDS011;6733;51.044;3.746;2023-04-15T10:30:41;16.33;;;12.17;;
13327;SDS011;6733;51.044;3.746;2023-04-15T10:33:08;13.67;;;10.13;;
13327;SDS011;6733;51.044;3.746;2023-04-15T10:35:35;10.70;;;8.20;;
13327;SDS011;6733;51.044;3.746;2023-04-15T10:38:06;9.00;;;6.70;;
13327;SDS011;6733;51.044;3.746;2023-04-15T10:43:47;7.67;;;5.90;;
13327;SDS011;6733;51.044;3.746;2023-04-15T10:46:40;8.00;;;5.73;;
13327;SDS011;6733;51.044;3.746;2023-04-15T10:49:07;6.40;;;5.50;;
13327;SDS011;6733;51.044;3.746;2023-04-15T10:51:34;7.67;;;5.00;;
13327;SDS011;6733;51.044;3.746;2023-04-15T10:54:16;6.27;;;5.60;;
13327;SDS011;6733;51.044;3.746;2023-04-15T10:57:05;6.63;;;5.17;;
13327;SDS011;6733;51.044;3.746;2023-04-15T11:05:05;7.47;;;5.80;;
13327;SDS011;6733;51.044;3.746;2023-04-15T11:12:38;5.10;;;4.53;;
13327;SDS011;6733;51.044;3.746;2023-04-15T11:17:50;6.40;;;4.57;;
13327;SDS011;6733;51.044;3.746;2023-04-15T11:20:17;5.43;;;4.53;;
13327;SDS011;6733;51.044;3.746;2023-04-15T11:22:50;5.70;;;4.90;;
13327;SDS011;6733;51.044;3.746;2023-04-15T11:25:21;5.40;;;4.10;;
13327;SDS011;6733;51.044;3.746;2023-04-15T11:27:51;6.33;;;4.73;;
13327;SDS011;6733;51.044;3.746;2023-04-15T11:30:20;7.53;;;5.43;;
13327;SDS011;6733;51.044;3.746;2023-04-15T11:32:50;6.23;;;5.50;;
13327;SDS011;6733;51.044;3.746;2023-04-15T11:35:18;6.43;;;4.87;;
13327;SDS011;6733;51.044;3.746;2023-04-15T11:37:45;5.60;;;5.07;;
13327;SDS011;6733;51.044;3.746;2023-04-15T11:40:11;7.23;;;5.10;;
13327;SDS011;6733;51.044;3.746;2023-04-15T11:42:39;5.83;;;4.40;;
13327;SDS011;6733;51.044;3.746;2023-04-15T11:45:09;5.47;;;4.10;;
13327;SDS011;6733;51.044;3.746;2023-04-15T11:47:37;5.33;;;4.83;;
13327;SDS011;6733;51.044;3.746;2023-04-15T11:50:17;4.73;;;4.33;;
13327;SDS011;6733;51.044;3.746;2023-04-15T11:52:54;5.03;;;4.50;;
13327;SDS011;6733;51.044;3.746;2023-04-15T11:55:21;5.40;;;4.17;;
13327;SDS011;6733;51.044;3.746;2023-04-15T12:00:45;5.67;;;4.40;;
13327;SDS011;6733;51.044;3.746;2023-04-15T12:03:13;5.20;;;4.57;;
13327;SDS011;6733;51.044;3.746;2023-04-15T12:08:48;5.47;;;4.93;;
13327;SDS011;6733;51.044;3.746;2023-04-15T12:11:44;4.80;;;4.13;;
13327;SDS011;6733;51.044;3.746;2023-04-15T12:14:15;6.03;;;4.33;;
13327;SDS011;6733;51.044;3.746;2023-04-15T12:17:01;6.47;;;5.13;;
13327;SDS011;6733;51.044;3.746;2023-04-15T12:19:29;6.37;;;5.50;;
13327;SDS011;6733;51.044;3.746;2023-04-15T12:22:00;5.30;;;4.80;;
13327;SDS011;6733;51.044;3.746;2023-04-15T12:24:32;7.30;;;6.17;;
13327;SDS011;6733;51.044;3.746;2023-04-15T12:29:30;7.70;;;5.47;;
13327;SDS011;6733;51.044;3.746;2023-04-15T12:34:44;7.60;;;5.43;;
13327;SDS011;6733;51.044;3.746;2023-04-15T12:37:13;7.93;;;5.60;;
13327;SDS011;6733;51.044;3.746;2023-04-15T12:39:41;8.00;;;5.47;;
13327;SDS011;6733;51.044;3.746;2023-04-15T12:42:08;5.43;;;4.93;;
13327;SDS011;6733;51.044;3.746;2023-04-15T12:44:35;6.77;;;5.13;;
13327;SDS011;6733;51.044;3.746;2023-04-15T12:47:02;6.50;;;5.90;;
13327;SDS011;6733;51.044;3.746;2023-04-15T12:49:29;7.10;;;5.90;;
13327;SDS011;6733;51.044;3.746;2023-04-15T12:51:57;5.90;;;4.27;;
13327;SDS011;6733;51.044;3.746;2023-04-15T12:54:25;5.50;;;3.67;;
13327;SDS011;6733;51.044;3.746;2023-04-15T12:56:52;6.07;;;5.03;;
13327;SDS011;6733;51.044;3.746;2023-04-15T12:59:19;7.43;;;5.83;;
13327;SDS011;6733;51.044;3.746;2023-04-15T13:01:46;7.73;;;5.43;;
13327;SDS011;6733;51.044;3.746;2023-04-15T13:04:13;8.27;;;6.37;;
13327;SDS011;6733;51.044;3.746;2023-04-15T13:06:40;11.50;;;8.63;;
13327;SDS011;6733;51.044;3.746;2023-04-15T13:09:07;8.77;;;6.57;;
13327;SDS011;6733;51.044;3.746;2023-04-15T13:11:33;8.37;;;6.40;;
13327;SDS011;6733;51.044;3.746;2023-04-15T13:14:01;7.70;;;6.47;;
13327;SDS011;6733;51.044;3.746;2023-04-15T13:16:29;8.23;;;5.70;;
13327;SDS011;6733;51.044;3.746;2023-04-15T13:18:57;7.60;;;5.93;;
13327;SDS011;6733;51.044;3.746;2023-04-15T13:21:24;6.83;;;4.97;;
13327;SDS011;6733;51.044;3.746;2023-04-15T13:23:51;6.67;;;5.20;;
13327;SDS011;6733;51.044;3.746;2023-04-15T13:26:17;6.13;;;5.53;;
13327;SDS011;6733;51.044;3.746;2023-04-15T13:28:43;7.93;;;5.43;;
13327;SDS011;6733;51.044;3.746;2023-04-15T13:31:09;8.37;;;5.60;;
13327;SDS011;6733;51.044;3.746;2023-04-15T13:33:36;5.93;;;4.93;;
13327;SDS011;6733;51.044;3.746;2023-04-15T13:36:02;11.00;;;8.83;;
13327;SDS011;6733;51.044;3.746;2023-04-15T13:38:28;6.97;;;4.40;;
13327;SDS011;6733;51.044;3.746;2023-04-15T13:40:55;5.67;;;3.63;;
13327;SDS011;6733;51.044;3.746;2023-04-15T13:43:21;6.13;;;4.83;;
13327;SDS011;6733;51.044;3.746;2023-04-15T13:45:47;6.70;;;5.63;;
13327;SDS011;6733;51.044;3.746;2023-04-15T13:48:14;7.57;;;6.13;;
13327;SDS011;6733;51.044;3.746;2023-04-15T13:50:40;8.20;;;6.30;;
13327;SDS011;6733;51.044;3.746;2023-04-15T13:53:12;8.40;;;7.10;;
13327;SDS011;6733;51.044;3.746;2023-04-15T13:55:39;9.07;;;6.97;;
13327;SDS011;6733;51.044;3.746;2023-04-15T13:58:07;10.47;;;7.57;;
13327;SDS011;6733;51.044;3.746;2023-04-15T14:00:33;10.27;;;7.67;;
13327;SDS011;6733;51.044;3.746;2023-04-15T14:03:00;9.90;;;7.37;;
13327;SDS011;6733;51.044;3.746;2023-04-15T14:05:26;9.13;;;7.60;;
13327;SDS011;6733;51.044;3.746;2023-04-15T14:07:52;11.53;;;7.97;;
13327;SDS011;6733;51.044;3.746;2023-04-15T14:10:19;9.03;;;7.60;;
13327;SDS011;6733;51.044;3.746;2023-04-15T14:12:45;8.93;;;7.77;;
13327;SDS011;6733;51.044;3.746;2023-04-15T14:15:11;9.93;;;7.77;;
13327;SDS011;6733;51.044;3.746;2023-04-15T14:17:37;9.23;;;7.70;;
13327;SDS011;6733;51.044;3.746;2023-04-15T14:20:05;8.50;;;7.40;;
13327;SDS011;6733;51.044;3.746;2023-04-15T14:22:32;8.50;;;6.60;;
13327;SDS011;6733;51.044;3.746;2023-04-15T14:24:58;9.17;;;6.60;;
13327;SDS011;6733;51.044;3.746;2023-04-15T14:27:25;7.73;;;6.80;;
13327;SDS011;6733;51.044;3.746;2023-04-15T14:29:51;11.77;;;7.30;;
13327;SDS011;6733;51.044;3.746;2023-04-15T14:32:18;9.60;;;5.87;;
13327;SDS011;6733;51.044;3.746;2023-04-15T14:34:45;7.50;;;6.77;;
13327;SDS011;6733;51.044;3.746;2023-04-15T14:37:11;8.10;;;7.00;;
13327;SDS011;6733;51.044;3.746;2023-04-15T14:39:37;8.67;;;7.40;;
13327;SDS011;6733;51.044;3.746;2023-04-15T14:42:04;8.23;;;6.23;;
13327;SDS011;6733;51.044;3.746;2023-04-15T14:44:30;8.97;;;6.13;;
13327;SDS011;6733;51.044;3.746;2023-04-15T14:46:56;5.97;;;5.40;;
13327;SDS011;6733;51.044;3.746;2023-04-15T14:49:23;6.67;;;4.67;;
13327;SDS011;6733;51.044;3.746;2023-04-15T14:51:49;10.47;;;5.40;;
13327;SDS011;6733;51.044;3.746;2023-04-15T14:54:15;9.50;;;4.47;;
13327;SDS011;6733;51.044;3.746;2023-04-15T14:56:41;5.73;;;4.17;;
13327;SDS011;6733;51.044;3.746;2023-04-15T14:59:07;6.57;;;4.20;;
13327;SDS011;6733;51.044;3.746;2023-04-15T15:01:33;5.93;;;3.80;;
13327;SDS011;6733;51.044;3.746;2023-04-15T15:04:00;6.27;;;3.80;;
13327;SDS011;6733;51.044;3.746;2023-04-15T15:06:26;4.87;;;3.20;;
13327;SDS011;6733;51.044;3.746;2023-04-15T15:08:52;5.60;;;3.30;;
13327;SDS011;6733;51.044;3.746;2023-04-15T15:11:18;4.40;;;2.73;;
13327;SDS011;6733;51.044;3.746;2023-04-15T15:13:45;5.40;;;3.07;;
13327;SDS011;6733;51.044;3.746;2023-04-15T15:16:11;4.70;;;2.67;;
13327;SDS011;6733;51.044;3.746;2023-04-15T15:18:38;4.30;;;2.50;;
13327;SDS011;6733;51.044;3.746;2023-04-15T15:21:04;4.73;;;2.70;;
13327;SDS011;6733;51.044;3.746;2023-04-15T15:23:30;3.10;;;2.60;;
13327;SDS011;6733;51.044;3.746;2023-04-15T15:25:57;3.93;;;2.87;;
13327;SDS011;6733;51.044;3.746;2023-04-15T15:28:23;7.63;;;3.10;;
13327;SDS011;6733;51.044;3.746;2023-04-15T15:30:50;3.67;;;3.07;;
13327;SDS011;6733;51.044;3.746;2023-04-15T15:33:16;3.47;;;2.70;;